Crozier, Virginia
Current Conditions -  °F | °C
As of 7:54 AM on Friday 19 Dec 2014 (Local Time) from KOFP Reporting Station
Clear Clear  
Wind Chill: 27°   Ceiling: Unl
Heat Index: 27°   Visibility: 8mi
Dew Point: 24°   Wind: 0mph
Humidity: 89%   Direction: NA
Pressure: 30.17"   Gusts: NA
Location:  37.65°N, 77.8°W
Report Text: KOFP 191254Z AUTO 00000KT 8SM CLR M03/M04 A3017 RMK AO2 SLP219 T10281044
Loading
Personal Weather Stations






























Interactive Weather Map New forecast layout! Learn more

10-Day Weather Forecast

Advertisements
Track Severe Weather on mobile